sensor_id;sensor_type;location;lat;lon;timestamp;pressure;altitude;pressure_sealevel;temperature;humidity
31092;BME280;67728;53.122;12.776;2023-05-20T00:01:06;101889.66;;;8.17;74.53
31092;BME280;67728;53.122;12.776;2023-05-20T00:02:38;101879.34;;;8.18;73.89
31092;BME280;67728;53.122;12.776;2023-05-20T00:04:10;101881.09;;;8.22;74.41
31092;BME280;67728;53.122;12.776;2023-05-20T00:05:41;101879.94;;;8.01;74.36
31092;BME280;67728;53.122;12.776;2023-05-20T00:07:14;101879.50;;;7.70;75.36
31092;BME280;67728;53.122;12.776;2023-05-20T00:08:46;101880.38;;;7.69;75.91
31092;BME280;67728;53.122;12.776;2023-05-20T00:10:17;101875.31;;;7.75;75.92
31092;BME280;67728;53.122;12.776;2023-05-20T00:11:49;101874.13;;;7.55;75.36
31092;BME280;67728;53.122;12.776;2023-05-20T00:13:20;101873.78;;;7.34;76.11
31092;BME280;67728;53.122;12.776;2023-05-20T00:14:53;101874.63;;;7.32;76.96
31092;BME280;67728;53.122;12.776;2023-05-20T00:16:24;101873.09;;;7.44;76.61
31092;BME280;67728;53.122;12.776;2023-05-20T00:17:56;101872.03;;;7.32;77.35
31092;BME280;67728;53.122;12.776;2023-05-20T00:19:28;101868.75;;;7.40;76.50
31092;BME280;67728;53.122;12.776;2023-05-20T00:21:00;101880.00;;;7.47;76.31
31092;BME280;67728;53.122;12.776;2023-05-20T00:22:33;101873.69;;;7.28;77.62
31092;BME280;67728;53.122;12.776;2023-05-20T00:24:05;101870.22;;;7.26;77.50
31092;BME280;67728;53.122;12.776;2023-05-20T00:25:35;101871.25;;;7.37;77.09
31092;BME280;67728;53.122;12.776;2023-05-20T00:27:07;101870.22;;;7.28;77.10
31092;BME280;67728;53.122;12.776;2023-05-20T00:28:38;101870.22;;;7.26;77.00
31092;BME280;67728;53.122;12.776;2023-05-20T00:30:11;101867.56;;;7.21;76.60
31092;BME280;67728;53.122;12.776;2023-05-20T00:31:43;101870.19;;;7.24;77.43
31092;BME280;67728;53.122;12.776;2023-05-20T00:33:14;101872.84;;;7.29;76.93
31092;BME280;67728;53.122;12.776;2023-05-20T00:34:54;101868.47;;;7.25;77.10
31092;BME280;67728;53.122;12.776;2023-05-20T00:36:26;101872.03;;;7.33;77.21
31092;BME280;67728;53.122;12.776;2023-05-20T00:37:59;101870.16;;;7.23;77.36
31092;BME280;67728;53.122;12.776;2023-05-20T00:39:30;101863.25;;;7.20;78.28
31092;BME280;67728;53.122;12.776;2023-05-20T00:41:01;101870.16;;;7.23;77.90
31092;BME280;67728;53.122;12.776;2023-05-20T00:42:33;101870.97;;;7.19;77.99
31092;BME280;67728;53.122;12.776;2023-05-20T00:44:04;101861.66;;;7.30;77.85
31092;BME280;67728;53.122;12.776;2023-05-20T00:45:36;101866.06;;;7.34;77.16
31092;BME280;67728;53.122;12.776;2023-05-20T00:47:08;101865.19;;;7.34;76.63
31092;BME280;67728;53.122;12.776;2023-05-20T00:48:41;101865.22;;;7.35;76.02
31092;BME280;67728;53.122;12.776;2023-05-20T00:50:13;101864.41;;;7.38;75.84
31092;BME280;67728;53.122;12.776;2023-05-20T00:51:45;101872.75;;;7.24;75.72
31092;BME280;67728;53.122;12.776;2023-05-20T00:53:19;101869.22;;;7.19;76.15
31092;BME280;67728;53.122;12.776;2023-05-20T00:54:51;101876.91;;;7.15;77.25
31092;BME280;67728;53.122;12.776;2023-05-20T00:56:23;101874.09;;;7.03;77.01
31092;BME280;67728;53.122;12.776;2023-05-20T00:57:55;101874.59;;;6.81;78.16
31092;BME280;67728;53.122;12.776;2023-05-20T00:59:26;101867.66;;;6.78;78.80
31092;BME280;67728;53.122;12.776;2023-05-20T01:00:57;101860.88;;;6.83;77.97
31092;BME280;67728;53.122;12.776;2023-05-20T01:02:29;101868.56;;;6.80;78.30
31092;BME280;67728;53.122;12.776;2023-05-20T01:04:01;101866.09;;;6.86;77.80
31092;BME280;67728;53.122;12.776;2023-05-20T01:05:33;101864.47;;;6.91;77.02
31092;BME280;67728;53.122;12.776;2023-05-20T01:07:04;101864.28;;;6.82;77.46
31092;BME280;67728;53.122;12.776;2023-05-20T01:08:38;101864.22;;;6.79;77.70
31092;BME280;67728;53.122;12.776;2023-05-20T01:10:10;101867.59;;;6.75;77.58
31092;BME280;67728;53.122;12.776;2023-05-20T01:11:47;101871.34;;;6.47;78.62
31092;BME280;67728;53.122;12.776;2023-05-20T01:13:27;101860.44;;;6.60;78.71
31092;BME280;67728;53.122;12.776;2023-05-20T01:15:05;101863.03;;;6.60;78.42
31092;BME280;67728;53.122;12.776;2023-05-20T01:16:36;101864.72;;;6.60;77.81
31092;BME280;67728;53.122;12.776;2023-05-20T01:18:10;101861.94;;;6.49;77.53
31092;BME280;67728;53.122;12.776;2023-05-20T01:19:47;101862.94;;;6.57;78.20
31092;BME280;67728;53.122;12.776;2023-05-20T01:21:19;101857.00;;;6.60;77.72
31092;BME280;67728;53.122;12.776;2023-05-20T01:22:54;101850.94;;;6.58;78.18
31092;BME280;67728;53.122;12.776;2023-05-20T01:24:26;101857.09;;;6.65;78.05
31092;BME280;67728;53.122;12.776;2023-05-20T01:25:58;101859.75;;;6.69;77.96
31092;BME280;67728;53.122;12.776;2023-05-20T01:27:30;101860.56;;;6.68;77.71
31092;BME280;67728;53.122;12.776;2023-05-20T01:29:02;101855.53;;;6.73;77.31
31092;BME280;67728;53.122;12.776;2023-05-20T01:30:37;101864.09;;;6.73;76.94
31092;BME280;67728;53.122;12.776;2023-05-20T01:32:15;101863.25;;;6.73;76.84
31092;BME280;67728;53.122;12.776;2023-05-20T01:33:53;101859.41;;;6.51;77.36
31092;BME280;67728;53.122;12.776;2023-05-20T01:35:27;101859.50;;;6.55;77.43
31092;BME280;67728;53.122;12.776;2023-05-20T01:37:00;101865.47;;;6.54;77.73
31092;BME280;67728;53.122;12.776;2023-05-20T01:38:35;101861.31;;;6.61;77.35
31092;BME280;67728;53.122;12.776;2023-05-20T01:40:07;101849.88;;;6.47;77.60
31092;BME280;67728;53.122;12.776;2023-05-20T01:41:39;101860.22;;;6.48;77.51
31092;BME280;67728;53.122;12.776;2023-05-20T01:43:12;101858.25;;;6.37;77.83
31092;BME280;67728;53.122;12.776;2023-05-20T01:44:44;101856.22;;;6.21;78.93
31092;BME280;67728;53.122;12.776;2023-05-20T01:46:16;101850.09;;;6.16;78.97
31092;BME280;67728;53.122;12.776;2023-05-20T01:47:48;101852.91;;;6.26;78.83
31092;BME280;67728;53.122;12.776;2023-05-20T01:49:19;101847.88;;;6.32;78.21
31092;BME280;67728;53.122;12.776;2023-05-20T01:50:51;101853.78;;;6.28;78.26
31092;BME280;67728;53.122;12.776;2023-05-20T01:52:23;101851.00;;;6.19;79.09
31092;BME280;67728;53.122;12.776;2023-05-20T01:53:56;101854.63;;;6.27;79.08
31092;BME280;67728;53.122;12.776;2023-05-20T01:55:27;101858.13;;;6.31;79.08
31092;BME280;67728;53.122;12.776;2023-05-20T01:56:58;101860.03;;;6.41;78.51
31092;BME280;67728;53.122;12.776;2023-05-20T01:58:30;101857.44;;;6.38;77.41
31092;BME280;67728;53.122;12.776;2023-05-20T02:00:02;101860.72;;;6.31;77.95
31092;BME280;67728;53.122;12.776;2023-05-20T02:01:35;101859.66;;;6.21;77.56
31092;BME280;67728;53.122;12.776;2023-05-20T02:03:06;101861.50;;;6.27;77.26
31092;BME280;67728;53.122;12.776;2023-05-20T02:04:37;101853.28;;;6.03;77.73
31092;BME280;67728;53.122;12.776;2023-05-20T02:06:09;101853.03;;;5.92;78.38
31092;BME280;67728;53.122;12.776;2023-05-20T02:07:40;101849.28;;;5.79;79.24
31092;BME280;67728;53.122;12.776;2023-05-20T02:09:13;101850.63;;;5.62;80.35
31092;BME280;67728;53.122;12.776;2023-05-20T02:10:47;101849.81;;;5.65;81.03
31092;BME280;67728;53.122;12.776;2023-05-20T02:12:19;101850.75;;;5.68;80.84
31092;BME280;67728;53.122;12.776;2023-05-20T02:13:50;101850.88;;;5.74;81.19
31092;BME280;67728;53.122;12.776;2023-05-20T02:15:22;101846.78;;;5.82;80.68
31092;BME280;67728;53.122;12.776;2023-05-20T02:16:53;101845.94;;;5.83;80.51
31092;BME280;67728;53.122;12.776;2023-05-20T02:18:25;101844.13;;;5.79;80.82
31092;BME280;67728;53.122;12.776;2023-05-20T02:19:55;101844.47;;;5.93;80.54
31092;BME280;67728;53.122;12.776;2023-05-20T02:21:27;101845.41;;;5.98;79.79
31092;BME280;67728;53.122;12.776;2023-05-20T02:22:59;101851.34;;;5.94;78.92
31092;BME280;67728;53.122;12.776;2023-05-20T02:24:32;101848.56;;;5.85;79.66
31092;BME280;67728;53.122;12.776;2023-05-20T02:26:03;101844.19;;;5.81;79.57
31092;BME280;67728;53.122;12.776;2023-05-20T02:27:34;101844.19;;;5.82;80.43
31092;BME280;67728;53.122;12.776;2023-05-20T02:29:06;101845.81;;;5.79;81.35
31092;BME280;67728;53.122;12.776;2023-05-20T02:30:38;101840.38;;;5.65;82.63
31092;BME280;67728;53.122;12.776;2023-05-20T02:32:08;101842.28;;;5.74;82.85
31092;BME280;67728;53.122;12.776;2023-05-20T02:33:40;101831.69;;;5.60;81.72
31092;BME280;67728;53.122;12.776;2023-05-20T02:35:12;101833.53;;;5.66;81.47
31092;BME280;67728;53.122;12.776;2023-05-20T02:36:42;101834.47;;;5.69;81.56
31092;BME280;67728;53.122;12.776;2023-05-20T02:38:14;101839.53;;;5.65;81.41
31092;BME280;67728;53.122;12.776;2023-05-20T02:39:47;101837.19;;;5.75;81.31
31092;BME280;67728;53.122;12.776;2023-05-20T02:41:19;101839.56;;;5.68;81.53
31092;BME280;67728;53.122;12.776;2023-05-20T02:42:51;101836.47;;;5.82;81.53
31092;BME280;67728;53.122;12.776;2023-05-20T02:44:23;101845.00;;;5.80;80.59
31092;BME280;67728;53.122;12.776;2023-05-20T02:45:54;101842.66;;;5.89;80.75
31092;BME280;67728;53.122;12.776;2023-05-20T02:47:26;101842.81;;;5.96;80.51
31092;BME280;67728;53.122;12.776;2023-05-20T02:48:56;101844.53;;;5.59;80.44
31092;BME280;67728;53.122;12.776;2023-05-20T02:50:28;101842.13;;;5.66;80.74
31092;BME280;67728;53.122;12.776;2023-05-20T02:51:59;101840.94;;;5.52;80.87
31092;BME280;67728;53.122;12.776;2023-05-20T02:53:30;101842.91;;;5.26;81.92
31092;BME280;67728;53.122;12.776;2023-05-20T02:55:04;101840.97;;;5.18;82.29
31092;BME280;67728;53.122;12.776;2023-05-20T02:56:36;101841.78;;;5.15;83.12
31092;BME280;67728;53.122;12.776;2023-05-20T02:58:08;101848.00;;;5.25;83.00
31092;BME280;67728;53.122;12.776;2023-05-20T02:59:40;101842.00;;;5.24;82.95
31092;BME280;67728;53.122;12.776;2023-05-20T03:01:11;101842.06;;;5.27;82.33
31092;BME280;67728;53.122;12.776;2023-05-20T03:02:43;101839.72;;;5.38;82.41
31092;BME280;67728;53.122;12.776;2023-05-20T03:04:14;101854.53;;;5.47;82.10
31092;BME280;67728;53.122;12.776;2023-05-20T03:05:48;101842.63;;;5.52;81.74
31092;BME280;67728;53.122;12.776;2023-05-20T03:07:19;101845.47;;;5.62;81.37
31092;BME280;67728;53.122;12.776;2023-05-20T03:08:51;101843.00;;;5.67;81.05
31092;BME280;67728;53.122;12.776;2023-05-20T03:10:24;101846.53;;;5.70;80.52
31092;BME280;67728;53.122;12.776;2023-05-20T03:11:55;101844.72;;;5.68;80.38
31092;BME280;67728;53.122;12.776;2023-05-20T03:13:26;101849.84;;;5.66;79.94
31092;BME280;67728;53.122;12.776;2023-05-20T03:14:58;101847.09;;;5.59;80.89
31092;BME280;67728;53.122;12.776;2023-05-20T03:16:30;101847.94;;;5.58;80.41
31092;BME280;67728;53.122;12.776;2023-05-20T03:18:05;101847.72;;;5.49;79.87
31092;BME280;67728;53.122;12.776;2023-05-20T03:19:37;101850.41;;;5.55;80.47
31092;BME280;67728;53.122;12.776;2023-05-20T03:21:09;101841.47;;;5.39;80.95
31092;BME280;67728;53.122;12.776;2023-05-20T03:22:40;101846.84;;;5.48;81.03
31092;BME280;67728;53.122;12.776;2023-05-20T03:24:11;101843.09;;;5.35;81.67
31092;BME280;67728;53.122;12.776;2023-05-20T03:25:44;101835.28;;;5.31;81.59
31092;BME280;67728;53.122;12.776;2023-05-20T03:27:15;101841.47;;;5.39;81.96
31092;BME280;67728;53.122;12.776;2023-05-20T03:28:46;101843.81;;;5.28;82.01
31092;BME280;67728;53.122;12.776;2023-05-20T03:30:18;101849.34;;;5.45;82.06
31092;BME280;67728;53.122;12.776;2023-05-20T03:31:50;101847.44;;;5.36;82.12
31092;BME280;67728;53.122;12.776;2023-05-20T03:33:21;101851.53;;;5.28;82.03
31092;BME280;67728;53.122;12.776;2023-05-20T03:34:55;101845.56;;;5.29;82.04
31092;BME280;67728;53.122;12.776;2023-05-20T03:36:27;101849.59;;;5.20;82.41
31092;BME280;67728;53.122;12.776;2023-05-20T03:37:59;101851.44;;;5.25;82.73
31092;BME280;67728;53.122;12.776;2023-05-20T03:39:31;101847.72;;;5.14;82.96
31092;BME280;67728;53.122;12.776;2023-05-20T03:41:04;101852.31;;;5.26;83.56
31092;BME280;67728;53.122;12.776;2023-05-20T03:42:35;101853.38;;;5.34;83.36
31092;BME280;67728;53.122;12.776;2023-05-20T03:44:07;101850.69;;;5.29;83.33
31092;BME280;67728;53.122;12.776;2023-05-20T03:45:38;101859.47;;;5.37;83.46
31092;BME280;67728;53.122;12.776;2023-05-20T03:47:09;101865.78;;;5.52;83.20
31092;BME280;67728;53.122;12.776;2023-05-20T03:48:41;101869.97;;;5.47;82.63
31092;BME280;67728;53.122;12.776;2023-05-20T03:50:12;101860.88;;;5.61;83.19
31092;BME280;67728;53.122;12.776;2023-05-20T03:51:43;101866.19;;;5.68;82.88
31092;BME280;67728;53.122;12.776;2023-05-20T03:53:15;101868.91;;;5.76;82.67
31092;BME280;67728;53.122;12.776;2023-05-20T03:54:48;101868.75;;;5.68;82.11
31092;BME280;67728;53.122;12.776;2023-05-20T03:56:21;101869.88;;;5.79;82.12
31092;BME280;67728;53.122;12.776;2023-05-20T03:57:53;101866.41;;;5.77;81.80
31092;BME280;67728;53.122;12.776;2023-05-20T03:59:24;101875.00;;;5.79;81.75
31092;BME280;67728;53.122;12.776;2023-05-20T04:00:56;101873.34;;;5.81;81.83
31092;BME280;67728;53.122;12.776;2023-05-20T04:02:28;101872.31;;;5.73;82.35
31092;BME280;67728;53.122;12.776;2023-05-20T04:03:59;101873.31;;;5.80;82.25
31092;BME280;67728;53.122;12.776;2023-05-20T04:05:30;101869.56;;;5.66;82.67
31092;BME280;67728;53.122;12.776;2023-05-20T04:07:02;101868.06;;;5.75;82.82
31092;BME280;67728;53.122;12.776;2023-05-20T04:08:35;101875.81;;;5.75;82.62
31092;BME280;67728;53.122;12.776;2023-05-20T04:10:08;101872.97;;;5.65;82.81
31092;BME280;67728;53.122;12.776;2023-05-20T04:11:42;101867.28;;;5.78;82.55
31092;BME280;67728;53.122;12.776;2023-05-20T04:13:13;101874.38;;;5.86;82.52
31092;BME280;67728;53.122;12.776;2023-05-20T04:14:45;101869.16;;;5.85;82.74
31092;BME280;67728;53.122;12.776;2023-05-20T04:16:16;101867.94;;;5.71;83.31
31092;BME280;67728;53.122;12.776;2023-05-20T04:17:47;101879.63;;;5.91;82.92
31092;BME280;67728;53.122;12.776;2023-05-20T04:19:19;101877.88;;;5.90;83.12
31092;BME280;67728;53.122;12.776;2023-05-20T04:20:53;101877.03;;;5.91;83.26
31092;BME280;67728;53.122;12.776;2023-05-20T04:22:25;101880.22;;;5.81;83.94
31092;BME280;67728;53.122;12.776;2023-05-20T04:23:56;101878.81;;;5.95;84.14
31092;BME280;67728;53.122;12.776;2023-05-20T04:25:28;101888.22;;;5.93;85.05
31092;BME280;67728;53.122;12.776;2023-05-20T04:27:01;101877.19;;;5.98;84.62
31092;BME280;67728;53.122;12.776;2023-05-20T04:28:31;101880.88;;;6.10;83.72
31092;BME280;67728;53.122;12.776;2023-05-20T04:30:04;101879.88;;;6.03;84.04
31092;BME280;67728;53.122;12.776;2023-05-20T04:31:36;101873.16;;;6.11;84.33
31092;BME280;67728;53.122;12.776;2023-05-20T04:33:07;101874.16;;;6.16;84.11
31092;BME280;67728;53.122;12.776;2023-05-20T04:34:40;101868.22;;;6.20;84.32
31092;BME280;67728;53.122;12.776;2023-05-20T04:36:12;101870.84;;;6.22;83.92
31092;BME280;67728;53.122;12.776;2023-05-20T04:37:45;101871.75;;;6.24;84.23
31092;BME280;67728;53.122;12.776;2023-05-20T04:39:18;101874.41;;;6.28;84.41
31092;BME280;67728;53.122;12.776;2023-05-20T04:40:50;101874.34;;;6.25;84.39
31092;BME280;67728;53.122;12.776;2023-05-20T04:42:23;101871.09;;;6.35;83.71
31092;BME280;67728;53.122;12.776;2023-05-20T04:43:55;101868.53;;;6.35;84.00
31092;BME280;67728;53.122;12.776;2023-05-20T04:45:29;101871.28;;;6.43;83.58
31092;BME280;67728;53.122;12.776;2023-05-20T04:47:02;101872.13;;;6.43;83.78
31092;BME280;67728;53.122;12.776;2023-05-20T04:48:37;101875.00;;;6.58;83.77
31092;BME280;67728;53.122;12.776;2023-05-20T04:50:09;101869.88;;;6.60;84.30
31092;BME280;67728;53.122;12.776;2023-05-20T04:51:43;101872.50;;;6.61;84.21
31092;BME280;67728;53.122;12.776;2023-05-20T04:53:16;101874.22;;;6.62;83.81
31092;BME280;67728;53.122;12.776;2023-05-20T04:54:47;101876.97;;;6.72;83.80
31092;BME280;67728;53.122;12.776;2023-05-20T04:56:20;101881.38;;;6.77;83.44
31092;BME280;67728;53.122;12.776;2023-05-20T04:57:53;101877.28;;;6.88;83.33
31092;BME280;67728;53.122;12.776;2023-05-20T04:59:25;101876.50;;;6.92;82.97
31092;BME280;67728;53.122;12.776;2023-05-20T05:00:56;101883.56;;;7.02;83.06
31092;BME280;67728;53.122;12.776;2023-05-20T05:02:28;101883.66;;;7.07;82.63
31092;BME280;67728;53.122;12.776;2023-05-20T05:03:59;101878.72;;;7.19;83.06
31092;BME280;67728;53.122;12.776;2023-05-20T05:05:30;101872.16;;;7.41;82.38
31092;BME280;67728;53.122;12.776;2023-05-20T05:07:02;101870.44;;;7.41;82.21
31092;BME280;67728;53.122;12.776;2023-05-20T05:08:34;101871.66;;;7.63;83.04
31092;BME280;67728;53.122;12.776;2023-05-20T05:10:07;101867.41;;;7.66;81.92
31092;BME280;67728;53.122;12.776;2023-05-20T05:11:38;101872.78;;;7.78;82.21
31092;BME280;67728;53.122;12.776;2023-05-20T05:13:10;101864.31;;;7.89;82.32
31092;BME280;67728;53.122;12.776;2023-05-20T05:14:42;101864.63;;;8.13;82.82
31092;BME280;67728;53.122;12.776;2023-05-20T05:16:14;101866.47;;;8.21;81.90
31092;BME280;67728;53.122;12.776;2023-05-20T05:17:45;101866.69;;;8.38;82.04
31092;BME280;67728;53.122;12.776;2023-05-20T05:19:17;101859.13;;;8.55;81.64
31092;BME280;67728;53.122;12.776;2023-05-20T05:20:48;101855.94;;;8.81;82.41
31092;BME280;67728;53.122;12.776;2023-05-20T05:22:20;101854.44;;;9.03;81.55
31092;BME280;67728;53.122;12.776;2023-05-20T05:23:52;101862.34;;;9.18;81.82
31092;BME280;67728;53.122;12.776;2023-05-20T05:25:23;101858.16;;;9.32;81.20
31092;BME280;67728;53.122;12.776;2023-05-20T05:26:55;101860.00;;;9.50;80.57
31092;BME280;67728;53.122;12.776;2023-05-20T05:28:28;101858.34;;;9.56;80.19
31092;BME280;67728;53.122;12.776;2023-05-20T05:30:00;101865.31;;;9.67;80.35
31092;BME280;67728;53.122;12.776;2023-05-20T05:31:32;101869.72;;;9.84;79.77
31092;BME280;67728;53.122;12.776;2023-05-20T05:33:03;101865.47;;;9.92;79.55
31092;BME280;67728;53.122;12.776;2023-05-20T05:34:35;101868.97;;;10.02;79.19
31092;BME280;67728;53.122;12.776;2023-05-20T05:36:07;101866.56;;;10.31;78.53
31092;BME280;67728;53.122;12.776;2023-05-20T05:37:38;101871.75;;;10.34;78.32
31092;BME280;67728;53.122;12.776;2023-05-20T05:39:10;101873.50;;;10.38;77.47
31092;BME280;67728;53.122;12.776;2023-05-20T05:40:41;101870.97;;;10.53;77.84
31092;BME280;67728;53.122;12.776;2023-05-20T05:42:12;101868.41;;;10.66;76.55
31092;BME280;67728;53.122;12.776;2023-05-20T05:43:45;101866.69;;;10.64;76.38
31092;BME280;67728;53.122;12.776;2023-05-20T05:45:17;101866.69;;;10.68;77.49
31092;BME280;67728;53.122;12.776;2023-05-20T05:46:49;101860.63;;;10.74;77.61
31092;BME280;67728;53.122;12.776;2023-05-20T05:48:20;101855.47;;;10.78;77.49
31092;BME280;67728;53.122;12.776;2023-05-20T05:49:52;101858.94;;;10.93;77.49
31092;BME280;67728;53.122;12.776;2023-05-20T05:51:26;101853.75;;;10.96;75.70
31092;BME280;67728;53.122;12.776;2023-05-20T05:52:58;101858.94;;;11.03;76.46
31092;BME280;67728;53.122;12.776;2023-05-20T05:54:29;101855.47;;;11.06;76.13
31092;BME280;67728;53.122;12.776;2023-05-20T05:56:01;101851.16;;;11.14;76.19
31092;BME280;67728;53.122;12.776;2023-05-20T05:57:33;101864.16;;;11.26;76.44
31092;BME280;67728;53.122;12.776;2023-05-20T05:59:06;101855.50;;;11.36;76.70
31092;BME280;67728;53.122;12.776;2023-05-20T06:00:37;101856.38;;;11.43;75.13
31092;BME280;67728;53.122;12.776;2023-05-20T06:02:08;101856.38;;;11.49;74.39
31092;BME280;67728;53.122;12.776;2023-05-20T06:03:40;101843.38;;;11.56;74.52
31092;BME280;67728;53.122;12.776;2023-05-20T06:05:11;101854.59;;;11.66;74.54
31092;BME280;67728;53.122;12.776;2023-05-20T06:06:43;101860.69;;;11.74;74.48
31092;BME280;67728;53.122;12.776;2023-05-20T06:08:15;101852.06;;;11.70;74.11
31092;BME280;67728;53.122;12.776;2023-05-20T06:09:46;101845.09;;;11.77;73.58
31092;BME280;67728;53.122;12.776;2023-05-20T06:11:18;101840.72;;;11.85;74.14
31092;BME280;67728;53.122;12.776;2023-05-20T06:12:50;101841.59;;;11.88;74.81
31092;BME280;67728;53.122;12.776;2023-05-20T06:14:23;101852.00;;;11.94;73.97
31092;BME280;67728;53.122;12.776;2023-05-20T06:15:55;101837.22;;;12.01;72.94
31092;BME280;67728;53.122;12.776;2023-05-20T06:17:27;101843.25;;;12.09;72.63
31092;BME280;67728;53.122;12.776;2023-05-20T06:18:58;101844.13;;;12.04;73.71
31092;BME280;67728;53.122;12.776;2023-05-20T06:20:30;101844.13;;;12.07;72.54
31092;BME280;67728;53.122;12.776;2023-05-20T06:22:02;101850.16;;;12.18;73.17
31092;BME280;67728;53.122;12.776;2023-05-20T06:23:33;101840.56;;;12.30;72.46
31092;BME280;67728;53.122;12.776;2023-05-20T06:25:05;101845.69;;;12.48;73.80
31092;BME280;67728;53.122;12.776;2023-05-20T06:26:36;101838.72;;;12.53;71.95
31092;BME280;67728;53.122;12.776;2023-05-20T06:28:08;101835.28;;;12.50;70.98
31092;BME280;67728;53.122;12.776;2023-05-20T06:29:41;101835.31;;;12.42;73.24
31092;BME280;67728;53.122;12.776;2023-05-20T06:31:12;101837.88;;;12.50;72.76
31092;BME280;67728;53.122;12.776;2023-05-20T06:32:44;101834.31;;;12.63;71.93
31092;BME280;67728;53.122;12.776;2023-05-20T06:34:16;101839.56;;;12.58;71.82
31092;BME280;67728;53.122;12.776;2023-05-20T06:35:48;101834.44;;;12.42;71.25
31092;BME280;67728;53.122;12.776;2023-05-20T06:37:18;101835.25;;;12.56;71.60
31092;BME280;67728;53.122;12.776;2023-05-20T06:38:53;101837.88;;;12.51;71.84
31092;BME280;67728;53.122;12.776;2023-05-20T06:40:25;101837.81;;;12.65;71.66
31092;BME280;67728;53.122;12.776;2023-05-20T06:41:57;101838.63;;;12.66;71.28
31092;BME280;67728;53.122;12.776;2023-05-20T06:43:28;101837.84;;;12.59;71.73
31092;BME280;67728;53.122;12.776;2023-05-20T06:45:01;101838.72;;;12.55;70.63
31092;BME280;67728;53.122;12.776;2023-05-20T06:46:32;101833.50;;;12.55;72.23
31092;BME280;67728;53.122;12.776;2023-05-20T06:48:04;101839.59;;;12.52;72.37
31092;BME280;67728;53.122;12.776;2023-05-20T06:49:36;101832.63;;;12.54;72.55
31092;BME280;67728;53.122;12.776;2023-05-20T06:51:07;101830.09;;;12.48;72.76
31092;BME280;67728;53.122;12.776;2023-05-20T06:52:39;101828.34;;;12.50;72.53
31092;BME280;67728;53.122;12.776;2023-05-20T06:54:11;101827.47;;;12.48;72.80
31092;BME280;67728;53.122;12.776;2023-05-20T06:55:42;101835.34;;;12.36;72.09
31092;BME280;67728;53.122;12.776;2023-05-20T06:57:14;101831.84;;;12.45;73.36
31092;BME280;67728;53.122;12.776;2023-05-20T06:58:45;101828.38;;;12.38;72.53
31092;BME280;67728;53.122;12.776;2023-05-20T07:00:18;101818.91;;;12.28;72.92
31092;BME280;67728;53.122;12.776;2023-05-20T07:01:50;101825.78;;;12.40;73.34
31092;BME280;67728;53.122;12.776;2023-05-20T07:03:22;101824.94;;;12.38;72.28
31092;BME280;67728;53.122;12.776;2023-05-20T07:04:53;101819.69;;;12.45;72.84
31092;BME280;67728;53.122;12.776;2023-05-20T07:06:25;101816.19;;;12.46;72.67
31092;BME280;67728;53.122;12.776;2023-05-20T07:07:57;101809.28;;;12.42;72.44
31092;BME280;67728;53.122;12.776;2023-05-20T07:09:27;101813.66;;;12.40;73.29
31092;BME280;67728;53.122;12.776;2023-05-20T07:10:59;101812.75;;;12.41;72.16
31092;BME280;67728;53.122;12.776;2023-05-20T07:12:30;101807.59;;;12.37;72.81
31092;BME280;67728;53.122;12.776;2023-05-20T07:14:02;101804.94;;;12.46;73.59
31092;BME280;67728;53.122;12.776;2023-05-20T07:15:36;101806.72;;;12.39;72.30
31092;BME280;67728;53.122;12.776;2023-05-20T07:17:07;101801.53;;;12.38;71.53
31092;BME280;67728;53.122;12.776;2023-05-20T07:18:39;101812.84;;;12.29;72.91
31092;BME280;67728;53.122;12.776;2023-05-20T07:20:11;101805.88;;;12.34;71.99
31092;BME280;67728;53.122;12.776;2023-05-20T07:21:42;101804.13;;;12.35;71.97
31092;BME280;67728;53.122;12.776;2023-05-20T07:23:13;101799.69;;;12.49;71.26
31092;BME280;67728;53.122;12.776;2023-05-20T07:24:45;101811.88;;;12.45;71.72
31092;BME280;67728;53.122;12.776;2023-05-20T07:26:16;101802.19;;;12.70;71.92
31092;BME280;67728;53.122;12.776;2023-05-20T07:27:48;101800.38;;;12.77;71.16
31092;BME280;67728;53.122;12.776;2023-05-20T07:29:19;101795.22;;;12.72;71.67
31092;BME280;67728;53.122;12.776;2023-05-20T07:30:52;101800.44;;;12.71;71.87
31092;BME280;67728;53.122;12.776;2023-05-20T07:32:23;101794.31;;;12.76;71.86
31092;BME280;67728;53.122;12.776;2023-05-20T07:33:55;101793.34;;;12.94;71.46
31092;BME280;67728;53.122;12.776;2023-05-20T07:35:27;101793.97;;;13.23;70.99
31092;BME280;67728;53.122;12.776;2023-05-20T07:36:58;101792.09;;;13.39;69.42
31092;BME280;67728;53.122;12.776;2023-05-20T07:38:30;101800.03;;;13.25;70.73
31092;BME280;67728;53.122;12.776;2023-05-20T07:40:03;101794.78;;;13.31;69.88
31092;BME280;67728;53.122;12.776;2023-05-20T07:41:36;101792.03;;;13.45;70.14
31092;BME280;67728;53.122;12.776;2023-05-20T07:43:08;101794.84;;;13.24;70.73
31092;BME280;67728;53.122;12.776;2023-05-20T07:44:40;101800.16;;;13.08;70.58
31092;BME280;67728;53.122;12.776;2023-05-20T07:46:13;101796.69;;;13.11;70.33
31092;BME280;67728;53.122;12.776;2023-05-20T07:47:45;101805.31;;;13.19;69.22
31092;BME280;67728;53.122;12.776;2023-05-20T07:49:17;101807.13;;;13.11;70.50
31092;BME280;67728;53.122;12.776;2023-05-20T07:50:48;101800.91;;;13.27;70.75
31092;BME280;67728;53.122;12.776;2023-05-20T07:52:20;101803.44;;;13.35;69.81
31092;BME280;67728;53.122;12.776;2023-05-20T07:53:52;101798.84;;;13.59;70.17
31092;BME280;67728;53.122;12.776;2023-05-20T07:55:23;101804.44;;;13.17;70.43
31092;BME280;67728;53.122;12.776;2023-05-20T07:56:54;101803.44;;;13.32;70.60
31092;BME280;67728;53.122;12.776;2023-05-20T07:58:26;101804.91;;;13.60;69.71
31092;BME280;67728;53.122;12.776;2023-05-20T07:59:58;101803.38;;;13.41;68.96